Time;durP1;ratioP1;P1;durP2;ratioP2;P2;SDS_P1;SDS_P2;PMS_P1;PMS_P2;Temp;Humidity;BMP_temperature;BMP_pressure;BME280_temperature;BME280_humidity;BME280_pressure;Samples;Min_cycle;Max_cycle;Signal;HPM_P1;HPM_P2
2020/12/19 00:02:06;;;;;;;31.73;15.57;;;;;;;2.03;81.89;100640.22;1702488;82;21191;-60
2020/12/19 00:04:35;;;;;;;29.10;13.57;;;;;;;2.05;81.94;100641.08;1706702;82;21206;-60
2020/12/19 00:07:03;;;;;;;26.47;12.60;;;;;;;2.06;81.94;100648.60;1698340;82;21586;-59
2020/12/19 00:09:30;;;;;;;26.83;14.10;;;;;;;2.10;82.01;100653.05;1703833;82;21096;-60
2020/12/19 00:11:58;;;;;;;26.20;14.50;;;;;;;2.11;81.94;100644.20;1709297;82;21352;-60
2020/12/19 00:14:25;;;;;;;32.30;16.70;;;;;;;2.10;81.97;100644.64;1703515;82;21152;-59
2020/12/19 00:16:53;;;;;;;30.37;16.33;;;;;;;2.09;81.95;100644.19;1708505;82;21171;-60
2020/12/19 00:19:21;;;;;;;29.53;15.67;;;;;;;2.08;81.94;100649.50;1726370;80;21146;-62
2020/12/19 00:21:48;;;;;;;35.40;15.63;;;;;;;2.06;81.94;100651.26;1732673;80;21139;-60
2020/12/19 00:24:15;;;;;;;26.73;14.80;;;;;;;2.03;81.96;100657.48;1736630;80;21278;-59
2020/12/19 00:26:42;;;;;;;30.60;15.10;;;;;;;2.01;81.97;100658.35;1736703;80;21205;-60
2020/12/19 00:29:11;;;;;;;30.93;14.50;;;;;;;2.03;81.97;100655.27;1736381;80;21169;-60
2020/12/19 00:31:38;;;;;;;26.03;13.70;;;;;;;2.02;81.98;100654.37;1733281;80;21121;-59
2020/12/19 00:34:06;;;;;;;26.80;13.97;;;;;;;2.04;82.04;100651.73;1734642;80;21117;-59
2020/12/19 00:36:34;;;;;;;29.03;14.57;;;;;;;2.05;82.02;100654.36;1735164;80;21369;-59
2020/12/19 00:39:01;;;;;;;30.07;15.03;;;;;;;2.06;82.04;100652.59;1736221;80;21129;-61
2020/12/19 00:41:28;;;;;;;31.97;15.47;;;;;;;2.06;82.05;100657.90;1732248;80;21148;-59
2020/12/19 00:43:55;;;;;;;30.83;15.83;;;;;;;2.07;82.06;100662.33;1734292;80;21641;-59
2020/12/19 00:48:56;;;;;;;27.47;14.40;;;;;;;2.09;82.05;100657.91;1865314;74;27022;-58
2020/12/19 00:51:24;;;;;;;31.70;13.00;;;;;;;2.05;82.04;100654.80;1839070;75;20992;-58
2020/12/19 00:53:51;;;;;;;25.90;13.10;;;;;;;2.06;82.02;100659.23;1771526;78;21596;-58
2020/12/19 00:56:21;;;;;;;22.83;11.70;;;;;;;2.05;82.06;100649.48;1801222;77;21206;-60
2020/12/19 00:58:52;;;;;;;25.10;13.73;;;;;;;2.05;82.08;100651.70;1801143;77;20950;-58
2020/12/19 01:01:24;;;;;;;26.03;14.43;;;;;;;2.08;82.09;100657.02;1797495;77;21450;-59
2020/12/19 01:03:52;;;;;;;29.97;13.23;;;;;;;2.11;82.11;100652.16;1775583;78;20978;-58
2020/12/19 01:06:22;;;;;;;33.03;15.73;;;;;;;2.11;82.13;100656.15;1773324;78;22068;-59
2020/12/19 01:08:53;;;;;;;28.60;14.63;;;;;;;2.12;82.10;100655.27;1756707;79;21021;-62
2020/12/19 01:11:25;;;;;;;31.57;15.73;;;;;;;2.11;82.06;100650.84;1767299;78;20990;-61
2020/12/19 01:13:52;;;;;;;27.33;13.37;;;;;;;2.09;82.05;100654.81;1768144;79;21115;-61
2020/12/19 01:16:21;;;;;;;27.30;14.50;;;;;;;2.07;82.07;100657.02;1769251;78;21444;-62
2020/12/19 01:18:49;;;;;;;28.47;14.17;;;;;;;2.05;82.08;100658.78;1766745;78;21439;-60
2020/12/19 01:21:20;;;;;;;20.40;11.77;;;;;;;2.03;82.07;100652.16;1768828;79;21118;-59
2020/12/19 01:23:48;;;;;;;26.57;12.07;;;;;;;2.04;82.12;100651.73;1766579;79;21107;-61
2020/12/19 01:26:15;;;;;;;27.13;12.97;;;;;;;2.07;82.19;100656.58;1769354;79;20996;-59
2020/12/19 01:28:42;;;;;;;25.33;13.20;;;;;;;2.09;82.15;100652.59;1768805;79;21119;-60
2020/12/19 01:31:13;;;;;;;22.63;12.37;;;;;;;2.11;82.17;100650.39;1770993;78;22027;-59
2020/12/19 01:33:41;;;;;;;26.03;13.83;;;;;;;2.14;82.15;100652.14;1770297;78;21151;-62
2020/12/19 01:36:10;;;;;;;29.03;15.30;;;;;;;2.13;82.12;100658.34;1768479;78;21506;-61
2020/12/19 01:38:37;;;;;;;29.30;14.47;;;;;;;2.13;82.08;100659.66;1770772;79;21098;-59
2020/12/19 01:41:04;;;;;;;26.60;13.67;;;;;;;2.12;82.07;100668.55;1766763;79;21116;-60
2020/12/19 01:43:55;;;;;;;26.37;13.10;;;;;;;2.09;82.04;100661.45;1745632;80;22045;-60
2020/12/19 01:46:55;;;;;;;31.10;14.43;;;;;;;2.10;82.02;100663.23;1744568;79;21116;-62
2020/12/19 01:49:27;;;;;;;29.23;12.83;;;;;;;2.06;82.13;100657.45;1762113;79;20976;-61
2020/12/19 01:51:58;;;;;;;27.97;12.60;;;;;;;2.08;82.18;100660.13;1765015;79;21107;-60
2020/12/19 01:54:25;;;;;;;24.37;12.93;;;;;;;2.09;82.21;100660.56;1747386;80;21066;-63
2020/12/19 01:56:58;;;;;;;27.70;14.20;;;;;;;2.13;82.27;100657.01;1749806;80;21386;-59
2020/12/19 01:59:28;;;;;;;33.03;14.87;;;;;;;2.15;82.24;100660.56;1765869;79;21126;-60
2020/12/19 02:01:56;;;;;;;31.30;15.00;;;;;;;2.14;82.19;100659.67;1746331;80;21127;-59
2020/12/19 02:04:25;;;;;;;31.67;14.60;;;;;;;2.12;82.15;100656.16;1747051;80;21144;-61
2020/12/19 02:06:57;;;;;;;30.40;14.87;;;;;;;2.10;82.18;100654.37;1776672;79;21111;-61
2020/12/19 02:09:26;;;;;;;28.97;14.60;;;;;;;2.10;82.18;100660.57;1770646;78;21446;-59
2020/12/19 02:11:54;;;;;;;29.00;15.27;;;;;;;2.11;82.17;100663.67;1772094;78;21127;-61
2020/12/19 02:14:21;;;;;;;28.70;15.00;;;;;;;2.10;82.15;100665.00;1766046;78;20994;-62
2020/12/19 02:17:07;;;;;;;30.83;13.63;;;;;;;2.10;82.18;100658.36;1767129;79;21083;-59
2020/12/19 02:19:34;;;;;;;31.57;16.33;;;;;;;2.12;82.25;100659.25;1751161;80;21123;-62
2020/12/19 02:22:03;;;;;;;32.13;14.50;;;;;;;2.14;82.29;100665.42;1768893;79;21465;-60
2020/12/19 02:24:30;;;;;;;30.60;15.50;;;;;;;2.14;82.23;100659.67;1772034;79;21120;-60
2020/12/19 02:26:58;;;;;;;32.03;14.97;;;;;;;2.14;82.23;100660.11;1747180;80;21415;-61
2020/12/19 02:29:27;;;;;;;30.03;16.13;;;;;;;2.12;82.25;100664.13;1768771;78;21436;-60
2020/12/19 02:31:56;;;;;;;30.33;14.73;;;;;;;2.11;82.24;100659.69;1765856;79;21207;-62
2020/12/19 02:34:24;;;;;;;34.00;14.63;;;;;;;2.08;82.24;100658.35;1772350;78;22096;-60
2020/12/19 02:36:51;;;;;;;32.33;14.87;;;;;;;2.09;82.23;100659.23;1769567;79;21142;-63
2020/12/19 02:39:19;;;;;;;33.60;15.07;;;;;;;2.08;82.29;100653.48;1768427;79;21142;-62
2020/12/19 02:41:47;;;;;;;31.63;14.53;;;;;;;2.11;82.37;100657.48;1770406;79;21127;-61
2020/12/19 02:44:17;;;;;;;34.33;16.07;;;;;;;2.13;82.39;100660.55;1768137;79;21140;-59
2020/12/19 02:46:44;;;;;;;31.20;14.37;;;;;;;2.16;82.36;100667.65;1767883;79;21214;-62
2020/12/19 02:49:11;;;;;;;33.53;15.90;;;;;;;2.18;82.32;100658.80;1765347;79;21260;-62
2020/12/19 02:51:40;;;;;;;33.63;16.73;;;;;;;2.17;82.29;100663.67;1768498;78;21127;-62
2020/12/19 02:54:07;;;;;;;32.90;16.53;;;;;;;2.15;82.27;100661.89;1767677;78;21104;-61
2020/12/19 02:56:34;;;;;;;32.40;16.03;;;;;;;2.11;82.31;100662.79;1770322;78;21104;-62
2020/12/19 02:59:01;;;;;;;23.90;13.70;;;;;;;2.09;82.33;100662.78;1769914;79;22728;-62
2020/12/19 03:01:29;;;;;;;35.77;15.47;;;;;;;2.09;82.30;100666.77;1771536;78;20999;-62
2020/12/19 03:03:57;;;;;;;29.43;14.90;;;;;;;2.07;82.33;100668.53;1769230;78;21146;-62
2020/12/19 03:06:26;;;;;;;31.23;15.13;;;;;;;2.07;82.42;100663.66;1771101;79;21126;-62
2020/12/19 03:08:53;;;;;;;27.00;15.30;;;;;;;2.10;82.44;100663.23;1745286;80;21572;-62
2020/12/19 03:11:21;;;;;;;33.23;15.30;;;;;;;2.11;82.43;100658.36;1736443;80;22657;-62
2020/12/19 03:13:48;;;;;;;32.60;15.00;;;;;;;2.13;82.49;100661.88;1751507;80;21129;-62
2020/12/19 03:16:15;;;;;;;30.70;15.33;;;;;;;2.15;82.42;100663.22;1749094;80;21131;-62
2020/12/19 03:18:42;;;;;;;30.83;15.27;;;;;;;2.14;82.39;100661.44;1772224;79;21095;-62
2020/12/19 03:21:10;;;;;;;32.93;16.53;;;;;;;2.12;82.41;100663.23;1768598;78;21104;-62
2020/12/19 03:23:37;;;;;;;33.67;14.93;;;;;;;2.10;82.39;100665.89;1740505;79;22710;-62
2020/12/19 03:26:04;;;;;;;32.63;14.73;;;;;;;2.12;82.41;100668.11;1743698;79;21218;-62
2020/12/19 03:28:31;;;;;;;28.13;12.90;;;;;;;2.13;82.42;100659.66;1743178;79;21109;-62
2020/12/19 03:30:58;;;;;;;25.50;12.20;;;;;;;2.12;82.41;100658.81;1739667;79;21615;-63
2020/12/19 03:33:25;;;;;;;29.20;14.27;;;;;;;2.14;82.44;100658.78;1752280;80;21157;-62
2020/12/19 03:35:53;;;;;;;30.50;14.40;;;;;;;2.15;82.47;100656.13;1772828;79;21341;-62
2020/12/19 03:38:20;;;;;;;28.80;14.80;;;;;;;2.16;82.47;100653.92;1749780;80;21187;-62
2020/12/19 03:40:47;;;;;;;29.67;15.03;;;;;;;2.16;82.49;100651.27;1768568;79;21130;-62
2020/12/19 03:43:15;;;;;;;28.53;13.77;;;;;;;2.16;82.46;100651.71;1749855;80;21148;-62
2020/12/19 03:45:42;;;;;;;32.57;14.80;;;;;;;2.14;82.41;100655.69;1770597;79;21640;-62
2020/12/19 03:48:09;;;;;;;34.87;14.93;;;;;;;2.14;82.42;100653.47;1750357;80;22249;-62
2020/12/19 03:50:36;;;;;;;29.17;13.53;;;;;;;2.15;82.41;100653.92;1766894;78;21134;-62
2020/12/19 03:53:04;;;;;;;27.93;13.13;;;;;;;2.16;82.40;100650.37;1748458;80;21165;-62
2020/12/19 03:55:31;;;;;;;29.83;15.30;;;;;;;2.15;82.45;100649.94;1752288;79;21090;-62
2020/12/19 03:57:58;;;;;;;30.33;13.90;;;;;;;2.16;82.49;100661.89;1751823;79;21747;-62
2020/12/19 04:00:25;;;;;;;29.07;15.60;;;;;;;2.19;82.53;100670.31;1746020;79;22152;-62
2020/12/19 04:02:52;;;;;;;27.53;15.03;;;;;;;2.21;82.47;100661.44;1751279;79;21460;-62
2020/12/19 04:05:19;;;;;;;34.27;15.57;;;;;;;2.20;82.41;100664.13;1751147;79;21149;-62
2020/12/19 04:07:46;;;;;;;30.53;15.10;;;;;;;2.17;82.42;100664.11;1754375;79;21592;-62
2020/12/19 04:10:13;;;;;;;27.47;14.00;;;;;;;2.13;82.43;100671.62;1754263;79;21500;-62
2020/12/19 04:12:41;;;;;;;30.97;15.23;;;;;;;2.11;82.45;100666.77;1750409;79;21386;-62
2020/12/19 04:15:09;;;;;;;25.67;12.97;;;;;;;2.11;82.48;100672.97;1753446;79;21188;-62
2020/12/19 04:17:36;;;;;;;27.33;13.53;;;;;;;2.12;82.53;100667.22;1748497;79;21165;-62
2020/12/19 04:20:05;;;;;;;28.67;13.20;;;;;;;2.13;82.57;100668.52;1749246;79;21212;-62
2020/12/19 04:22:32;;;;;;;33.60;16.37;;;;;;;2.17;82.62;100662.78;1749237;79;21191;-62
2020/12/19 04:25:00;;;;;;;27.63;14.50;;;;;;;2.18;82.65;100666.77;1745436;79;21184;-62
2020/12/19 04:27:27;;;;;;;30.43;15.47;;;;;;;2.21;82.57;100671.20;1747294;79;21149;-62
2020/12/19 04:29:54;;;;;;;31.93;15.83;;;;;;;2.21;82.57;100667.22;1747839;79;21164;-62
2020/12/19 04:34:59;;;;;;;34.97;15.33;;;;;;;2.23;82.55;100668.08;1864345;75;26737;-63
2020/12/19 04:37:26;;;;;;;32.13;14.87;;;;;;;2.14;82.52;100674.28;1846425;76;22189;-62
2020/12/19 04:39:53;;;;;;;33.03;14.97;;;;;;;2.14;82.53;100668.08;1843492;75;21415;-62
2020/12/19 04:42:21;;;;;;;30.43;14.30;;;;;;;2.14;82.59;100668.97;1846243;76;21304;-60
2020/12/19 04:44:49;;;;;;;33.10;15.20;;;;;;;2.15;82.65;100670.74;1805601;78;21171;-61
2020/12/19 04:47:16;;;;;;;29.87;14.10;;;;;;;2.16;82.71;100667.20;1777787;78;21361;-61
2020/12/19 04:49:44;;;;;;;30.17;15.33;;;;;;;2.18;82.74;100660.13;1801308;78;20927;-60
2020/12/19 04:52:12;;;;;;;32.53;16.03;;;;;;;2.20;82.75;100668.11;1801458;78;22685;-61
2020/12/19 04:54:39;;;;;;;29.60;16.60;;;;;;;2.19;82.83;100663.23;1807036;78;20996;-60
2020/12/19 04:57:06;;;;;;;36.60;17.37;;;;;;;2.21;82.79;100669.88;1807479;78;20970;-60
2020/12/19 04:59:33;;;;;;;36.70;16.53;;;;;;;2.21;82.77;100671.20;1810906;78;21106;-60
2020/12/19 05:02:01;;;;;;;34.37;16.63;;;;;;;2.20;82.80;100669.44;1811822;78;21147;-60
2020/12/19 05:04:28;;;;;;;34.50;15.80;;;;;;;2.17;82.74;100667.66;1805657;78;21372;-60
2020/12/19 05:06:56;;;;;;;34.70;15.97;;;;;;;2.17;82.81;100674.73;1800018;78;21961;-60
2020/12/19 05:09:24;;;;;;;33.83;16.47;;;;;;;2.16;82.83;100675.61;1739882;79;21129;-60
2020/12/19 05:11:52;;;;;;;30.83;13.70;;;;;;;2.15;82.86;100677.38;1711446;80;22023;-60
2020/12/19 05:14:20;;;;;;;37.20;15.80;;;;;;;2.17;82.89;100678.72;1700690;79;21138;-61
2020/12/19 05:16:47;;;;;;;34.17;15.47;;;;;;;2.18;83.01;100674.73;1780175;77;21369;-60
2020/12/19 05:19:16;;;;;;;37.80;17.37;;;;;;;2.20;83.02;100674.75;1755735;78;21123;-60
2020/12/19 05:21:43;;;;;;;30.83;15.63;;;;;;;2.22;83.00;100675.61;1756669;78;21211;-60
2020/12/19 05:24:15;;;;;;;30.03;15.37;;;;;;;2.22;82.94;100684.46;1802947;77;21206;-61
2020/12/19 05:26:43;;;;;;;31.50;14.43;;;;;;;2.22;82.96;100687.56;1802013;77;21119;-61
2020/12/19 05:29:10;;;;;;;34.03;15.00;;;;;;;2.23;82.92;100686.68;1807000;77;21349;-61
2020/12/19 05:31:38;;;;;;;30.53;15.87;;;;;;;2.25;82.89;100686.25;1806339;77;21152;-60
2020/12/19 05:34:05;;;;;;;29.00;14.73;;;;;;;2.24;82.87;100680.48;1802496;77;21135;-61
2020/12/19 05:36:37;;;;;;;33.43;14.10;;;;;;;2.24;82.86;100682.70;1808585;77;21142;-60
2020/12/19 05:39:05;;;;;;;28.00;14.47;;;;;;;2.27;82.90;100685.81;1813264;77;21501;-60
2020/12/19 05:41:37;;;;;;;30.57;14.63;;;;;;;2.31;82.93;100685.34;1808712;77;22274;-61
2020/12/19 05:44:05;;;;;;;29.33;14.83;;;;;;;2.31;82.85;100691.98;1776318;77;21246;-61
2020/12/19 05:46:40;;;;;;;28.30;13.43;;;;;;;2.30;82.78;100691.58;1805898;77;21226;-61
2020/12/19 05:49:11;;;;;;;32.87;14.87;;;;;;;2.28;82.77;100692.90;1804509;77;21191;-60
2020/12/19 05:51:40;;;;;;;31.80;14.60;;;;;;;2.27;82.76;100693.78;1808951;77;21088;-61
2020/12/19 05:54:11;;;;;;;34.60;15.30;;;;;;;2.24;82.75;100689.34;1801898;77;21585;-61
2020/12/19 05:56:42;;;;;;;31.10;14.03;;;;;;;2.24;82.68;100696.42;1805242;77;21940;-61
2020/12/19 05:59:13;;;;;;;30.53;13.37;;;;;;;2.26;82.70;100705.28;1805168;77;21234;-61
2020/12/19 06:01:46;;;;;;;25.50;12.63;;;;;;;2.28;82.71;100708.84;1802343;77;21300;-61
2020/12/19 06:04:14;;;;;;;31.37;14.53;;;;;;;2.30;82.71;100703.53;1805833;77;21107;-61
2020/12/19 06:06:46;;;;;;;29.40;14.07;;;;;;;2.31;82.65;100703.95;1802669;77;21774;-62
2020/12/19 06:09:14;;;;;;;32.70;15.33;;;;;;;2.32;82.65;100711.92;1783923;77;21130;-61
2020/12/19 06:11:54;;;;;;;28.57;14.37;;;;;;;2.32;82.66;100715.91;1806810;77;21478;-61
2020/12/19 06:14:22;;;;;;;33.53;15.23;;;;;;;2.32;82.65;100719.89;1800185;77;21191;-62
2020/12/19 06:16:53;;;;;;;34.03;15.80;;;;;;;2.32;82.62;100723.88;1782384;77;21171;-61
2020/12/19 06:19:23;;;;;;;31.73;16.10;;;;;;;2.32;82.59;100732.29;1776312;77;21709;-62
2020/12/19 06:21:55;;;;;;;28.30;14.73;;;;;;;2.32;82.52;100742.91;1807032;77;21238;-61
2020/12/19 06:24:44;;;;;;;26.90;15.33;;;;;;;2.31;82.46;100746.45;1806625;77;21143;-61
2020/12/19 06:27:26;;;;;;;27.33;14.27;;;;;;;2.31;82.45;100750.00;1806701;77;21450;-61
2020/12/19 06:29:54;;;;;;;29.30;14.40;;;;;;;2.30;82.46;100748.22;1813199;77;21082;-62
2020/12/19 06:32:23;;;;;;;28.57;15.17;;;;;;;2.32;82.50;100747.79;1805643;77;21484;-62
2020/12/19 06:35:04;;;;;;;35.17;15.73;;;;;;;2.34;82.50;100750.02;1804926;77;21127;-61
2020/12/19 06:37:38;;;;;;;35.40;17.40;;;;;;;2.36;82.45;100752.23;1770003;79;20980;-61
2020/12/19 06:40:18;;;;;;;33.67;17.70;;;;;;;2.36;82.52;100756.22;1753897;79;21142;-62
2020/12/19 06:42:49;;;;;;;41.00;18.23;;;;;;;2.39;82.45;100764.61;1765774;79;21087;-63
2020/12/19 06:45:30;;;;;;;40.73;17.77;;;;;;;2.38;82.43;100765.09;1749261;80;21244;-61
2020/12/19 06:47:57;;;;;;;41.03;18.77;;;;;;;2.37;82.40;100773.05;1746748;79;21119;-62
2020/12/19 06:50:25;;;;;;;32.93;16.33;;;;;;;2.34;82.38;100773.03;1748098;80;21202;-61
2020/12/19 06:52:59;;;;;;;33.03;16.57;;;;;;;2.33;82.38;100773.92;1797588;77;21210;-61
2020/12/19 06:55:28;;;;;;;29.35;15.05;;;;;;;2.34;82.42;100768.61;1810403;77;21186;-64
2020/12/19 06:57:57;;;;;;;32.50;16.00;;;;;;;2.36;82.54;100775.27;1809981;77;23582;-62
2020/12/19 07:00:27;;;;;;;29.07;14.90;;;;;;;2.38;82.52;100774.83;1803842;77;21199;-62
2020/12/19 07:02:58;;;;;;;24.83;13.87;;;;;;;2.39;82.50;100776.57;1799525;77;21636;-61
2020/12/19 07:05:34;;;;;;;30.03;15.53;;;;;;;2.39;82.48;100770.81;1800464;77;21173;-62
2020/12/19 07:08:22;;;;;;;33.17;16.77;;;;;;;2.39;82.41;100769.93;1807051;77;21214;-62
2020/12/19 07:10:50;;;;;;;35.53;15.60;;;;;;;2.35;82.44;100766.84;1800053;77;21232;-62
2020/12/19 07:13:18;;;;;;;31.67;15.80;;;;;;;2.34;82.49;100766.39;1801813;77;21121;-62
2020/12/19 07:19:19;;;;;;;33.37;16.03;;;;;;;2.37;82.46;100769.06;1752101;78;27081;-60
2020/12/19 07:21:47;;;;;;;27.73;14.23;;;;;;;2.32;82.57;100774.80;1758678;79;21250;-63
2020/12/19 07:26:05;;;;;;;32.80;16.37;;;;;;;2.40;82.61;100772.59;1787140;77;26619;-61
2020/12/19 07:28:33;;;;;;;33.23;17.07;;;;;;;2.35;82.65;100769.06;1767636;78;21182;-60
2020/12/19 07:31:01;;;;;;;29.03;14.33;;;;;;;2.37;82.69;100776.59;1766094;78;21339;-61
2020/12/19 07:33:28;;;;;;;35.47;15.67;;;;;;;2.39;82.66;100773.91;1711558;81;21210;-60
2020/12/19 07:35:56;;;;;;;33.60;15.97;;;;;;;2.39;82.65;100772.14;1715388;81;21312;-60
2020/12/19 07:38:23;;;;;;;37.47;17.00;;;;;;;2.38;82.63;100774.39;1696823;80;21192;-63
2020/12/19 07:40:55;;;;;;;35.83;16.23;;;;;;;2.40;82.67;100778.34;1721088;80;21204;-62
2020/12/19 07:43:22;;;;;;;34.40;16.10;;;;;;;2.41;82.71;100767.73;1721533;80;21357;-63
2020/12/19 07:45:57;;;;;;;33.33;15.87;;;;;;;2.45;82.74;100769.52;1720533;80;21906;-63
2020/12/19 07:48:25;;;;;;;34.90;16.47;;;;;;;2.48;82.74;100775.25;1722178;80;21049;-63
2020/12/19 07:52:43;;;;;;;37.80;17.07;;;;;;;2.56;82.79;100773.48;1787165;77;26918;-62
2020/12/19 07:55:10;;;;;;;43.10;17.60;;;;;;;2.54;82.84;100767.31;1774954;78;21413;-61
2020/12/19 07:57:37;;;;;;;38.87;17.47;;;;;;;2.57;82.80;100773.49;1776720;78;21388;-61
2020/12/19 08:00:05;;;;;;;37.20;17.07;;;;;;;2.58;82.73;100779.70;1780316;78;22473;-61
2020/12/19 08:02:37;;;;;;;34.23;16.27;;;;;;;2.58;82.68;100773.94;1772923;78;21045;-60
2020/12/19 08:05:04;;;;;;;26.70;13.23;;;;;;;2.61;82.67;100781.04;1772897;78;21198;-62
2020/12/19 08:07:32;;;;;;;31.17;13.23;;;;;;;2.64;82.65;100780.58;1768409;78;21483;-61
2020/12/19 08:10:07;;;;;;;30.63;14.03;;;;;;;2.69;82.62;100779.27;1762132;80;21281;-62
2020/12/19 08:12:35;;;;;;;23.10;12.83;;;;;;;2.73;82.59;100774.38;1770141;80;21230;-62
2020/12/19 08:15:06;;;;;;;19.10;11.57;;;;;;;2.79;82.55;100772.17;1769765;80;21494;-60
2020/12/19 08:17:37;;;;;;;26.50;14.57;;;;;;;2.82;82.43;100773.04;1765645;80;21517;-61
2020/12/19 08:20:05;;;;;;;26.93;13.03;;;;;;;2.84;82.38;100764.62;1767463;80;21180;-61
2020/12/19 08:22:32;;;;;;;24.70;12.23;;;;;;;2.86;82.27;100772.17;1759697;80;21626;-61
2020/12/19 08:25:00;;;;;;;28.70;14.50;;;;;;;2.86;82.26;100768.17;1766722;80;21165;-61
2020/12/19 08:27:40;;;;;;;23.47;12.70;;;;;;;2.85;82.20;100768.17;1761988;80;22677;-60
2020/12/19 08:30:20;;;;;;;19.03;11.20;;;;;;;2.85;82.17;100773.49;1709168;81;21213;-61
2020/12/19 08:32:59;;;;;;;23.43;12.43;;;;;;;2.84;82.14;100773.94;1705101;82;21128;-61
2020/12/19 08:35:36;;;;;;;23.80;12.03;;;;;;;2.86;82.13;100768.63;1734168;81;21272;-60
2020/12/19 08:38:23;;;;;;;25.13;13.30;;;;;;;2.89;82.11;100772.14;1729378;81;21456;-62
2020/12/19 08:40:51;;;;;;;19.70;11.40;;;;;;;2.93;82.17;100771.70;1707944;81;21355;-61
2020/12/19 08:43:20;;;;;;;21.53;12.70;;;;;;;2.96;82.09;100774.38;1703117;83;21128;-62
2020/12/19 08:45:49;;;;;;;21.77;12.97;;;;;;;2.97;82.06;100774.82;1705679;83;21554;-62
2020/12/19 08:48:22;;;;;;;25.03;13.80;;;;;;;2.96;82.00;100770.39;1711362;83;21291;-62
2020/12/19 08:50:52;;;;;;;26.85;14.60;;;;;;;2.95;82.03;100770.83;1702856;83;21212;-62
2020/12/19 08:53:24;;;;;;;26.33;14.07;;;;;;;2.93;82.02;100762.40;1664019;84;21218;-62
2020/12/19 08:55:52;;;;;;;28.77;13.93;;;;;;;2.94;82.04;100769.05;1659207;84;21138;-62
2020/12/19 08:58:29;;;;;;;23.93;12.50;;;;;;;2.97;82.02;100761.52;1659967;84;21175;-62
2020/12/19 09:01:02;;;;;;;23.73;12.00;;;;;;;2.99;82.03;100759.72;1663852;84;21392;-62
2020/12/19 09:03:33;;;;;;;23.97;12.43;;;;;;;3.02;82.13;100757.07;1661906;83;21279;-62
2020/12/19 09:06:06;;;;;;;21.80;12.57;;;;;;;3.04;82.07;100752.20;1730533;80;22054;-62
2020/12/19 09:08:42;;;;;;;22.97;13.97;;;;;;;3.08;82.13;100746.41;1727686;80;21220;-59
2020/12/19 09:11:23;;;;;;;25.57;13.77;;;;;;;3.10;82.13;100746.41;1729242;80;21466;-61
2020/12/19 09:13:52;;;;;;;24.37;15.10;;;;;;;3.13;82.10;100741.09;1722618;80;21381;-61
2020/12/19 09:16:19;;;;;;;27.27;15.57;;;;;;;3.16;82.04;100743.73;1722823;80;21196;-59
2020/12/19 09:18:47;;;;;;;25.37;15.83;;;;;;;3.16;81.98;100741.95;1723645;80;21661;-60
2020/12/19 09:21:14;;;;;;;27.90;15.37;;;;;;;3.16;82.01;100743.28;1734823;80;21831;-59
2020/12/19 09:23:41;;;;;;;21.93;13.73;;;;;;;3.18;81.99;100742.84;1690611;82;21158;-60
2020/12/19 09:26:09;;;;;;;28.17;15.80;;;;;;;3.22;82.00;100740.62;1662576;84;21644;-60
2020/12/19 09:28:36;;;;;;;23.40;14.30;;;;;;;3.24;82.00;100735.28;1663831;84;21214;-61
2020/12/19 09:31:03;;;;;;;26.50;15.20;;;;;;;3.27;82.03;100732.17;1667603;83;21219;-60
2020/12/19 09:33:30;;;;;;;30.57;19.83;;;;;;;3.32;82.05;100727.70;1693098;82;21186;-60
2020/12/19 09:35:57;;;;;;;35.20;20.47;;;;;;;3.38;81.99;100721.50;1665846;84;21621;-60
2020/12/19 09:38:24;;;;;;;36.77;21.60;;;;;;;3.41;81.95;100730.34;1667009;83;22261;-60
2020/12/19 09:40:51;;;;;;;39.07;21.00;;;;;;;3.44;81.93;100730.78;1697655;82;21180;-58
2020/12/19 09:43:19;;;;;;;32.23;19.27;;;;;;;3.45;81.90;100731.67;1691578;82;21478;-61
2020/12/19 09:45:46;;;;;;;33.63;18.20;;;;;;;3.46;81.84;100729.02;1689696;82;21457;-59
2020/12/19 09:48:14;;;;;;;32.53;17.73;;;;;;;3.47;81.79;100725.46;1691809;82;21196;-59
2020/12/19 09:50:41;;;;;;;28.50;16.33;;;;;;;3.50;81.75;100728.53;1729325;80;21214;-60
2020/12/19 09:53:09;;;;;;;33.77;17.20;;;;;;;3.50;81.69;100732.08;1748307;80;21263;-59
2020/12/19 09:55:36;;;;;;;32.17;17.03;;;;;;;3.51;81.70;100735.19;1752639;80;22547;-59
2020/12/19 09:58:04;;;;;;;33.47;17.90;;;;;;;3.52;81.66;100734.74;1751358;80;21180;-61
2020/12/19 10:00:33;;;;;;;37.17;18.87;;;;;;;3.52;81.66;100738.30;1755228;80;21135;-61
2020/12/19 10:03:00;;;;;;;34.63;19.90;;;;;;;3.53;81.66;100737.84;1750352;80;21459;-62
2020/12/19 10:05:28;;;;;;;38.13;19.07;;;;;;;3.51;81.58;100740.52;1757553;80;21916;-58
2020/12/19 10:07:56;;;;;;;29.07;16.53;;;;;;;3.50;81.58;100729.86;1694365;82;21257;-60
2020/12/19 10:10:26;;;;;;;25.57;14.67;;;;;;;3.52;81.51;100730.30;1647753;83;21202;-62
2020/12/19 10:12:53;;;;;;;30.83;15.30;;;;;;;3.54;81.48;100731.19;1751614;80;21216;-59
2020/12/19 10:15:20;;;;;;;28.07;15.63;;;;;;;3.54;81.40;100731.64;1754666;80;21333;-60
2020/12/19 10:17:48;;;;;;;28.37;16.13;;;;;;;3.52;81.40;100733.41;1756667;80;21172;-61
2020/12/19 10:20:15;;;;;;;26.50;14.80;;;;;;;3.51;81.47;100733.86;1755016;80;21712;-60
2020/12/19 10:22:42;;;;;;;25.37;14.60;;;;;;;3.50;81.40;100729.86;1756262;80;21247;-61
2020/12/19 10:25:09;;;;;;;24.70;14.93;;;;;;;3.47;81.36;100732.11;1754968;80;21207;-59
2020/12/19 10:27:36;;;;;;;25.60;14.00;;;;;;;3.45;81.37;100735.66;1757200;79;21235;-60
2020/12/19 10:30:04;;;;;;;26.83;14.20;;;;;;;3.43;81.33;100733.00;1754788;80;21201;-59
2020/12/19 10:32:31;;;;;;;21.53;12.27;;;;;;;3.44;81.36;100732.11;1751145;80;21219;-60
2020/12/19 10:35:03;;;;;;;23.20;12.87;;;;;;;3.45;81.40;100733.00;1757158;80;21219;-60
2020/12/19 10:37:28;;;;;;;23.70;13.13;;;;;;;3.47;81.46;100733.45;1752535;80;21242;-59
2020/12/19 10:39:55;;;;;;;26.63;14.50;;;;;;;3.49;81.39;100731.64;1753853;80;22546;-61
2020/12/19 10:42:24;;;;;;;30.20;17.23;;;;;;;3.49;81.32;100727.64;1755647;80;22071;-60
2020/12/19 10:44:52;;;;;;;28.80;15.07;;;;;;;3.51;81.32;100731.64;1695358;82;21244;-61
2020/12/19 10:47:20;;;;;;;32.70;17.13;;;;;;;3.49;81.32;100725.46;1693876;82;21644;-59
2020/12/19 10:49:47;;;;;;;28.37;17.57;;;;;;;3.48;81.33;100730.34;1754389;80;21242;-59
2020/12/19 10:52:14;;;;;;;33.43;17.90;;;;;;;3.48;81.29;100729.90;1754802;80;21638;-60
2020/12/19 10:54:41;;;;;;;28.47;15.50;;;;;;;3.52;81.30;100726.76;1748547;80;21185;-59
2020/12/19 10:57:09;;;;;;;21.17;13.63;;;;;;;3.53;81.33;100724.09;1747360;80;21684;-60
2020/12/19 10:59:36;;;;;;;22.27;13.30;;;;;;;3.56;81.31;100732.08;1745349;80;21211;-62
2020/12/19 11:02:03;;;;;;;26.97;14.60;;;;;;;3.57;81.18;100721.87;1746859;80;21179;-60
2020/12/19 11:04:30;;;;;;;29.10;15.33;;;;;;;3.57;81.16;100723.65;1751515;80;21206;-61
2020/12/19 11:06:57;;;;;;;32.13;18.73;;;;;;;3.55;81.10;100722.31;1747555;80;21613;-62
2020/12/19 11:09:24;;;;;;;32.97;18.97;;;;;;;3.55;81.08;100722.31;1746759;80;21160;-61
2020/12/19 11:11:53;;;;;;;24.13;14.73;;;;;;;3.53;81.05;100720.10;1748037;80;21221;-61
2020/12/19 11:14:21;;;;;;;25.87;13.83;;;;;;;3.54;81.05;100723.66;1746437;80;21216;-60
2020/12/19 11:16:49;;;;;;;24.77;13.83;;;;;;;3.55;81.08;100719.66;1713548;80;22384;-61
2020/12/19 11:19:16;;;;;;;21.43;13.10;;;;;;;3.56;81.09;100721.43;1711231;82;21605;-61
2020/12/19 11:21:44;;;;;;;23.47;13.13;;;;;;;3.58;81.12;100727.61;1706225;82;21226;-61
2020/12/19 11:24:13;;;;;;;23.63;13.80;;;;;;;3.61;81.10;100722.73;1705665;82;22255;-60
2020/12/19 11:26:41;;;;;;;21.53;12.33;;;;;;;3.65;81.13;100727.16;1704901;82;20985;-60
2020/12/19 11:29:10;;;;;;;25.73;13.97;;;;;;;3.67;81.06;100726.68;1706857;82;21640;-59
2020/12/19 11:31:37;;;;;;;25.53;15.07;;;;;;;3.64;80.98;100724.05;1670608;83;21249;-59
2020/12/19 11:34:05;;;;;;;26.80;16.17;;;;;;;3.62;80.98;100720.06;1670921;83;21208;-60
2020/12/19 11:36:40;;;;;;;33.43;18.03;;;;;;;3.59;80.95;100724.05;1660354;84;21112;-60
2020/12/19 11:39:08;;;;;;;32.83;17.50;;;;;;;3.57;80.95;100717.88;1647430;85;21191;-60